sensor_id;sensor_type;location;lat;lon;timestamp;P1;durP1;ratioP1;P2;durP2;ratioP2
72132;SDS011;60008;50.826;6.896;2022-11-15T00:00:52;9.48;;;4.60;;
72132;SDS011;60008;50.826;6.896;2022-11-15T00:03:38;10.98;;;5.70;;
72132;SDS011;60008;50.826;6.896;2022-11-15T00:06:23;9.63;;;4.60;;
72132;SDS011;60008;50.826;6.896;2022-11-15T00:09:08;9.27;;;4.72;;
72132;SDS011;60008;50.826;6.896;2022-11-15T00:11:54;12.05;;;5.05;;
72132;SDS011;60008;50.826;6.896;2022-11-15T00:14:39;12.55;;;4.90;;
72132;SDS011;60008;50.826;6.896;2022-11-15T00:17:24;13.90;;;4.57;;
72132;SDS011;60008;50.826;6.896;2022-11-15T00:20:09;10.90;;;5.07;;
72132;SDS011;60008;50.826;6.896;2022-11-15T00:22:54;10.02;;;4.70;;
72132;SDS011;60008;50.826;6.896;2022-11-15T00:25:39;15.55;;;5.55;;
72132;SDS011;60008;50.826;6.896;2022-11-15T00:28:25;10.55;;;5.13;;
72132;SDS011;60008;50.826;6.896;2022-11-15T00:31:14;10.90;;;5.22;;
72132;SDS011;60008;50.826;6.896;2022-11-15T00:33:59;10.47;;;5.60;;
72132;SDS011;60008;50.826;6.896;2022-11-15T00:36:44;10.80;;;5.55;;
72132;SDS011;60008;50.826;6.896;2022-11-15T00:39:29;11.50;;;5.43;;
72132;SDS011;60008;50.826;6.896;2022-11-15T00:42:14;12.13;;;5.05;;
72132;SDS011;60008;50.826;6.896;2022-11-15T00:44:59;10.13;;;5.07;;
72132;SDS011;60008;50.826;6.896;2022-11-15T00:47:45;11.67;;;5.43;;
72132;SDS011;60008;50.826;6.896;2022-11-15T00:50:31;12.85;;;5.30;;
72132;SDS011;60008;50.826;6.896;2022-11-15T00:53:16;10.27;;;5.60;;
72132;SDS011;60008;50.826;6.896;2022-11-15T00:56:02;11.20;;;5.03;;
72132;SDS011;60008;50.826;6.896;2022-11-15T00:58:47;10.52;;;5.32;;
72132;SDS011;60008;50.826;6.896;2022-11-15T01:01:32;15.03;;;5.20;;
72132;SDS011;60008;50.826;6.896;2022-11-15T01:04:17;14.52;;;6.00;;
72132;SDS011;60008;50.826;6.896;2022-11-15T01:07:02;11.10;;;5.45;;
72132;SDS011;60008;50.826;6.896;2022-11-15T01:09:47;11.77;;;5.57;;
72132;SDS011;60008;50.826;6.896;2022-11-15T01:12:32;12.05;;;6.13;;
72132;SDS011;60008;50.826;6.896;2022-11-15T01:15:17;11.53;;;5.93;;
72132;SDS011;60008;50.826;6.896;2022-11-15T01:18:02;11.43;;;5.55;;
72132;SDS011;60008;50.826;6.896;2022-11-15T01:20:47;8.68;;;4.93;;
72132;SDS011;60008;50.826;6.896;2022-11-15T01:23:33;10.07;;;5.03;;
72132;SDS011;60008;50.826;6.896;2022-11-15T01:26:18;9.68;;;5.00;;
72132;SDS011;60008;50.826;6.896;2022-11-15T01:29:03;10.87;;;4.93;;
72132;SDS011;60008;50.826;6.896;2022-11-15T01:31:48;13.85;;;4.93;;
72132;SDS011;60008;50.826;6.896;2022-11-15T01:34:34;11.63;;;4.65;;
72132;SDS011;60008;50.826;6.896;2022-11-15T01:37:19;12.93;;;5.38;;
72132;SDS011;60008;50.826;6.896;2022-11-15T01:40:04;12.35;;;5.97;;
72132;SDS011;60008;50.826;6.896;2022-11-15T01:42:49;10.67;;;5.03;;
72132;SDS011;60008;50.826;6.896;2022-11-15T01:45:34;10.93;;;5.53;;
72132;SDS011;60008;50.826;6.896;2022-11-15T01:48:20;10.05;;;5.28;;
72132;SDS011;60008;50.826;6.896;2022-11-15T01:51:07;10.48;;;5.60;;
72132;SDS011;60008;50.826;6.896;2022-11-15T01:53:56;16.77;;;5.80;;
72132;SDS011;60008;50.826;6.896;2022-11-15T01:56:47;10.13;;;4.60;;
72132;SDS011;60008;50.826;6.896;2022-11-15T01:59:37;10.48;;;4.47;;
72132;SDS011;60008;50.826;6.896;2022-11-15T02:02:25;11.00;;;4.82;;
72132;SDS011;60008;50.826;6.896;2022-11-15T02:05:10;12.02;;;5.40;;
72132;SDS011;60008;50.826;6.896;2022-11-15T02:07:55;8.00;;;4.50;;
72132;SDS011;60008;50.826;6.896;2022-11-15T02:10:41;10.27;;;5.07;;
72132;SDS011;60008;50.826;6.896;2022-11-15T02:13:26;11.18;;;4.88;;
72132;SDS011;60008;50.826;6.896;2022-11-15T02:19:22;8.88;;;4.78;;
72132;SDS011;60008;50.826;6.896;2022-11-15T02:31:00;9.05;;;4.72;;
72132;SDS011;60008;50.826;6.896;2022-11-15T02:34:00;11.38;;;5.30;;
72132;SDS011;60008;50.826;6.896;2022-11-15T02:37:21;10.85;;;4.68;;
72132;SDS011;60008;50.826;6.896;2022-11-15T02:40:27;13.20;;;4.17;;
72132;SDS011;60008;50.826;6.896;2022-11-15T02:43:23;10.15;;;4.30;;
72132;SDS011;60008;50.826;6.896;2022-11-15T02:46:39;10.50;;;4.55;;
72132;SDS011;60008;50.826;6.896;2022-11-15T02:49:48;18.35;;;5.25;;
72132;SDS011;60008;50.826;6.896;2022-11-15T02:52:36;11.57;;;4.75;;
72132;SDS011;60008;50.826;6.896;2022-11-15T02:55:28;8.53;;;4.23;;
72132;SDS011;60008;50.826;6.896;2022-11-15T02:58:20;10.07;;;4.72;;
72132;SDS011;60008;50.826;6.896;2022-11-15T03:07:11;8.18;;;4.95;;
72132;SDS011;60008;50.826;6.896;2022-11-15T03:13:27;9.80;;;5.00;;
72132;SDS011;60008;50.826;6.896;2022-11-15T03:16:20;12.93;;;5.47;;
72132;SDS011;60008;50.826;6.896;2022-11-15T03:19:19;12.48;;;5.57;;
72132;SDS011;60008;50.826;6.896;2022-11-15T03:22:15;9.35;;;5.10;;
72132;SDS011;60008;50.826;6.896;2022-11-15T03:25:04;8.50;;;4.33;;
72132;SDS011;60008;50.826;6.896;2022-11-15T03:27:53;11.18;;;5.25;;
72132;SDS011;60008;50.826;6.896;2022-11-15T03:30:41;11.90;;;5.28;;
72132;SDS011;60008;50.826;6.896;2022-11-15T03:33:28;11.85;;;4.85;;
72132;SDS011;60008;50.826;6.896;2022-11-15T03:36:15;7.68;;;3.92;;
72132;SDS011;60008;50.826;6.896;2022-11-15T03:39:02;11.00;;;4.50;;
72132;SDS011;60008;50.826;6.896;2022-11-15T03:45:03;12.85;;;4.70;;
72132;SDS011;60008;50.826;6.896;2022-11-15T03:48:03;12.20;;;5.00;;
72132;SDS011;60008;50.826;6.896;2022-11-15T03:50:54;8.20;;;3.95;;
72132;SDS011;60008;50.826;6.896;2022-11-15T03:53:40;8.00;;;4.43;;
72132;SDS011;60008;50.826;6.896;2022-11-15T03:56:25;7.50;;;3.78;;
72132;SDS011;60008;50.826;6.896;2022-11-15T03:59:10;7.35;;;4.03;;
72132;SDS011;60008;50.826;6.896;2022-11-15T04:01:55;8.73;;;4.13;;
72132;SDS011;60008;50.826;6.896;2022-11-15T04:04:40;11.40;;;4.60;;
72132;SDS011;60008;50.826;6.896;2022-11-15T04:07:26;9.43;;;4.40;;
72132;SDS011;60008;50.826;6.896;2022-11-15T04:10:12;9.18;;;4.68;;
72132;SDS011;60008;50.826;6.896;2022-11-15T04:12:57;7.38;;;4.13;;
72132;SDS011;60008;50.826;6.896;2022-11-15T04:15:42;9.70;;;4.30;;
72132;SDS011;60008;50.826;6.896;2022-11-15T04:18:27;6.95;;;3.70;;
72132;SDS011;60008;50.826;6.896;2022-11-15T04:21:13;6.90;;;3.87;;
72132;SDS011;60008;50.826;6.896;2022-11-15T04:24:17;11.77;;;3.58;;
72132;SDS011;60008;50.826;6.896;2022-11-15T04:27:02;6.70;;;3.55;;
72132;SDS011;60008;50.826;6.896;2022-11-15T04:29:47;9.43;;;3.63;;
72132;SDS011;60008;50.826;6.896;2022-11-15T04:32:32;7.82;;;3.75;;
72132;SDS011;60008;50.826;6.896;2022-11-15T04:35:17;7.47;;;3.20;;
72132;SDS011;60008;50.826;6.896;2022-11-15T04:38:02;8.05;;;4.20;;
72132;SDS011;60008;50.826;6.896;2022-11-15T04:40:49;9.98;;;3.97;;
72132;SDS011;60008;50.826;6.896;2022-11-15T04:43:34;6.68;;;3.63;;
72132;SDS011;60008;50.826;6.896;2022-11-15T04:46:19;6.10;;;3.80;;
72132;SDS011;60008;50.826;6.896;2022-11-15T04:49:05;8.93;;;4.17;;
72132;SDS011;60008;50.826;6.896;2022-11-15T04:51:50;7.72;;;3.85;;
72132;SDS011;60008;50.826;6.896;2022-11-15T04:54:35;7.68;;;3.83;;
72132;SDS011;60008;50.826;6.896;2022-11-15T04:57:20;12.32;;;4.53;;
72132;SDS011;60008;50.826;6.896;2022-11-15T05:00:06;7.68;;;4.03;;
72132;SDS011;60008;50.826;6.896;2022-11-15T05:02:52;9.10;;;4.40;;
72132;SDS011;60008;50.826;6.896;2022-11-15T05:05:57;9.32;;;4.25;;
72132;SDS011;60008;50.826;6.896;2022-11-15T05:08:43;8.57;;;3.90;;
72132;SDS011;60008;50.826;6.896;2022-11-15T05:11:28;6.97;;;3.78;;
72132;SDS011;60008;50.826;6.896;2022-11-15T05:14:13;8.45;;;3.97;;
72132;SDS011;60008;50.826;6.896;2022-11-15T05:16:58;7.30;;;3.97;;
72132;SDS011;60008;50.826;6.896;2022-11-15T05:19:43;10.10;;;4.07;;
72132;SDS011;60008;50.826;6.896;2022-11-15T05:22:29;7.53;;;3.80;;
72132;SDS011;60008;50.826;6.896;2022-11-15T05:25:14;8.15;;;4.25;;
72132;SDS011;60008;50.826;6.896;2022-11-15T05:28:00;6.10;;;3.60;;
72132;SDS011;60008;50.826;6.896;2022-11-15T05:30:45;7.50;;;3.90;;
72132;SDS011;60008;50.826;6.896;2022-11-15T05:33:30;7.28;;;4.28;;
72132;SDS011;60008;50.826;6.896;2022-11-15T05:36:21;8.85;;;3.65;;
72132;SDS011;60008;50.826;6.896;2022-11-15T05:39:12;8.52;;;3.47;;
72132;SDS011;60008;50.826;6.896;2022-11-15T05:42:02;7.38;;;3.97;;
72132;SDS011;60008;50.826;6.896;2022-11-15T05:44:54;9.17;;;3.80;;
72132;SDS011;60008;50.826;6.896;2022-11-15T05:47:39;8.02;;;3.28;;
72132;SDS011;60008;50.826;6.896;2022-11-15T05:50:25;7.47;;;3.95;;
72132;SDS011;60008;50.826;6.896;2022-11-15T05:53:11;7.00;;;3.47;;
72132;SDS011;60008;50.826;6.896;2022-11-15T05:55:59;6.80;;;3.75;;
72132;SDS011;60008;50.826;6.896;2022-11-15T05:58:44;7.63;;;3.70;;
72132;SDS011;60008;50.826;6.896;2022-11-15T06:01:29;8.35;;;3.97;;
72132;SDS011;60008;50.826;6.896;2022-11-15T06:04:14;7.68;;;3.80;;
72132;SDS011;60008;50.826;6.896;2022-11-15T06:06:59;10.48;;;3.78;;
72132;SDS011;60008;50.826;6.896;2022-11-15T06:09:44;6.05;;;3.58;;
72132;SDS011;60008;50.826;6.896;2022-11-15T06:12:29;6.17;;;3.27;;
72132;SDS011;60008;50.826;6.896;2022-11-15T06:15:14;7.15;;;3.90;;
72132;SDS011;60008;50.826;6.896;2022-11-15T06:18:00;6.97;;;3.70;;
72132;SDS011;60008;50.826;6.896;2022-11-15T06:20:45;7.25;;;3.22;;
72132;SDS011;60008;50.826;6.896;2022-11-15T06:23:33;6.30;;;3.30;;
72132;SDS011;60008;50.826;6.896;2022-11-15T06:26:19;7.03;;;3.30;;
72132;SDS011;60008;50.826;6.896;2022-11-15T06:29:04;7.68;;;3.60;;
72132;SDS011;60008;50.826;6.896;2022-11-15T06:31:49;7.82;;;3.47;;
72132;SDS011;60008;50.826;6.896;2022-11-15T06:34:34;6.75;;;3.30;;
72132;SDS011;60008;50.826;6.896;2022-11-15T06:37:20;7.65;;;3.92;;
72132;SDS011;60008;50.826;6.896;2022-11-15T06:40:05;6.60;;;3.30;;
72132;SDS011;60008;50.826;6.896;2022-11-15T06:42:56;7.15;;;3.50;;
72132;SDS011;60008;50.826;6.896;2022-11-15T06:45:42;7.55;;;3.80;;
72132;SDS011;60008;50.826;6.896;2022-11-15T06:48:28;7.30;;;3.58;;
72132;SDS011;60008;50.826;6.896;2022-11-15T06:51:14;7.30;;;3.60;;
72132;SDS011;60008;50.826;6.896;2022-11-15T06:53:59;6.57;;;2.90;;
72132;SDS011;60008;50.826;6.896;2022-11-15T06:56:44;7.47;;;3.47;;
72132;SDS011;60008;50.826;6.896;2022-11-15T06:59:29;9.35;;;3.50;;
72132;SDS011;60008;50.826;6.896;2022-11-15T07:02:14;7.82;;;3.55;;
72132;SDS011;60008;50.826;6.896;2022-11-15T07:04:59;7.60;;;3.38;;
72132;SDS011;60008;50.826;6.896;2022-11-15T07:07:50;9.17;;;4.10;;
72132;SDS011;60008;50.826;6.896;2022-11-15T07:10:36;10.07;;;3.40;;
72132;SDS011;60008;50.826;6.896;2022-11-15T07:13:23;7.15;;;3.42;;
72132;SDS011;60008;50.826;6.896;2022-11-15T07:16:10;7.85;;;3.33;;
72132;SDS011;60008;50.826;6.896;2022-11-15T07:18:55;6.60;;;3.38;;
72132;SDS011;60008;50.826;6.896;2022-11-15T07:21:41;7.90;;;3.50;;
72132;SDS011;60008;50.826;6.896;2022-11-15T07:24:26;9.48;;;3.85;;
72132;SDS011;60008;50.826;6.896;2022-11-15T07:27:11;7.60;;;3.30;;
72132;SDS011;60008;50.826;6.896;2022-11-15T07:29:56;7.00;;;3.30;;
72132;SDS011;60008;50.826;6.896;2022-11-15T07:32:41;6.00;;;2.63;;
72132;SDS011;60008;50.826;6.896;2022-11-15T07:35:27;6.70;;;2.73;;
72132;SDS011;60008;50.826;6.896;2022-11-15T07:38:13;5.00;;;2.75;;
72132;SDS011;60008;50.826;6.896;2022-11-15T07:41:00;6.03;;;2.40;;
72132;SDS011;60008;50.826;6.896;2022-11-15T07:43:46;5.40;;;2.28;;
72132;SDS011;60008;50.826;6.896;2022-11-15T07:46:32;4.93;;;2.30;;
72132;SDS011;60008;50.826;6.896;2022-11-15T07:49:16;4.07;;;2.00;;
72132;SDS011;60008;50.826;6.896;2022-11-15T07:52:01;4.53;;;2.28;;
72132;SDS011;60008;50.826;6.896;2022-11-15T07:54:46;4.50;;;2.15;;
72132;SDS011;60008;50.826;6.896;2022-11-15T07:57:32;5.75;;;2.42;;
72132;SDS011;60008;50.826;6.896;2022-11-15T08:00:17;4.05;;;1.77;;
72132;SDS011;60008;50.826;6.896;2022-11-15T08:03:03;6.10;;;2.43;;
72132;SDS011;60008;50.826;6.896;2022-11-15T08:05:51;6.63;;;2.08;;
72132;SDS011;60008;50.826;6.896;2022-11-15T08:08:37;3.95;;;1.90;;
72132;SDS011;60008;50.826;6.896;2022-11-15T08:11:22;5.57;;;2.20;;
72132;SDS011;60008;50.826;6.896;2022-11-15T08:14:07;5.40;;;2.55;;
72132;SDS011;60008;50.826;6.896;2022-11-15T08:16:52;6.83;;;2.10;;
72132;SDS011;60008;50.826;6.896;2022-11-15T08:19:39;6.15;;;2.50;;
72132;SDS011;60008;50.826;6.896;2022-11-15T08:22:24;8.18;;;2.92;;
72132;SDS011;60008;50.826;6.896;2022-11-15T08:25:09;5.10;;;2.20;;
72132;SDS011;60008;50.826;6.896;2022-11-15T08:27:54;11.27;;;2.47;;
72132;SDS011;60008;50.826;6.896;2022-11-15T08:30:41;10.37;;;4.27;;
72132;SDS011;60008;50.826;6.896;2022-11-15T08:33:27;4.57;;;1.80;;
72132;SDS011;60008;50.826;6.896;2022-11-15T08:36:14;7.13;;;2.30;;
72132;SDS011;60008;50.826;6.896;2022-11-15T08:39:00;4.90;;;1.95;;
72132;SDS011;60008;50.826;6.896;2022-11-15T08:41:45;4.03;;;1.67;;
72132;SDS011;60008;50.826;6.896;2022-11-15T08:44:30;5.70;;;2.13;;
72132;SDS011;60008;50.826;6.896;2022-11-15T08:47:15;5.68;;;2.05;;
72132;SDS011;60008;50.826;6.896;2022-11-15T08:50:00;4.90;;;1.80;;
72132;SDS011;60008;50.826;6.896;2022-11-15T08:52:45;2.95;;;1.40;;
72132;SDS011;60008;50.826;6.896;2022-11-15T08:55:32;3.58;;;1.50;;
72132;SDS011;60008;50.826;6.896;2022-11-15T08:58:20;3.73;;;1.43;;
72132;SDS011;60008;50.826;6.896;2022-11-15T09:01:05;4.40;;;2.10;;
72132;SDS011;60008;50.826;6.896;2022-11-15T09:03:50;3.35;;;1.80;;
72132;SDS011;60008;50.826;6.896;2022-11-15T09:06:35;3.50;;;1.40;;
72132;SDS011;60008;50.826;6.896;2022-11-15T09:09:27;3.78;;;1.70;;
72132;SDS011;60008;50.826;6.896;2022-11-15T09:12:12;3.77;;;1.10;;
72132;SDS011;60008;50.826;6.896;2022-11-15T09:14:57;3.90;;;1.25;;
72132;SDS011;60008;50.826;6.896;2022-11-15T09:17:42;2.70;;;1.13;;
72132;SDS011;60008;50.826;6.896;2022-11-15T09:20:27;4.78;;;1.15;;
72132;SDS011;60008;50.826;6.896;2022-11-15T09:23:13;2.92;;;1.27;;
72132;SDS011;60008;50.826;6.896;2022-11-15T09:26:01;3.67;;;1.20;;
72132;SDS011;60008;50.826;6.896;2022-11-15T09:28:47;5.53;;;0.80;;
72132;SDS011;60008;50.826;6.896;2022-11-15T09:31:32;6.30;;;0.93;;
72132;SDS011;60008;50.826;6.896;2022-11-15T09:34:17;3.85;;;0.40;;
72132;SDS011;60008;50.826;6.896;2022-11-15T09:37:02;5.53;;;0.60;;
72132;SDS011;60008;50.826;6.896;2022-11-15T09:39:48;4.73;;;0.70;;
72132;SDS011;60008;50.826;6.896;2022-11-15T09:42:37;1.98;;;0.60;;
72132;SDS011;60008;50.826;6.896;2022-11-15T09:45:42;2.45;;;0.68;;
72132;SDS011;60008;50.826;6.896;2022-11-15T09:51:38;1.60;;;0.38;;
72132;SDS011;60008;50.826;6.896;2022-11-15T09:54:41;1.93;;;0.30;;
72132;SDS011;60008;50.826;6.896;2022-11-15T10:00:51;3.90;;;0.50;;
72132;SDS011;60008;50.826;6.896;2022-11-15T10:03:38;1.50;;;0.38;;
72132;SDS011;60008;50.826;6.896;2022-11-15T10:06:26;1.70;;;0.50;;
72132;SDS011;60008;50.826;6.896;2022-11-15T10:09:16;2.63;;;0.50;;
72132;SDS011;60008;50.826;6.896;2022-11-15T10:12:08;1.30;;;0.35;;
72132;SDS011;60008;50.826;6.896;2022-11-15T10:15:04;2.45;;;0.30;;
72132;SDS011;60008;50.826;6.896;2022-11-15T10:18:00;1.92;;;0.40;;
72132;SDS011;60008;50.826;6.896;2022-11-15T10:20:54;4.75;;;0.40;;
72132;SDS011;60008;50.826;6.896;2022-11-15T10:23:42;15.23;;;0.50;;
72132;SDS011;60008;50.826;6.896;2022-11-15T10:26:28;1.42;;;0.20;;
72132;SDS011;60008;50.826;6.896;2022-11-15T10:29:23;2.22;;;0.38;;
72132;SDS011;60008;50.826;6.896;2022-11-15T10:32:12;2.35;;;0.30;;
72132;SDS011;60008;50.826;6.896;2022-11-15T10:34:58;1.15;;;0.30;;
72132;SDS011;60008;50.826;6.896;2022-11-15T10:37:43;0.93;;;0.30;;
72132;SDS011;60008;50.826;6.896;2022-11-15T10:40:28;1.67;;;0.40;;
72132;SDS011;60008;50.826;6.896;2022-11-15T10:43:17;1.80;;;0.38;;
72132;SDS011;60008;50.826;6.896;2022-11-15T10:46:24;7.10;;;0.57;;
72132;SDS011;60008;50.826;6.896;2022-11-15T10:49:29;3.83;;;0.80;;
72132;SDS011;60008;50.826;6.896;2022-11-15T10:52:18;0.73;;;0.20;;
72132;SDS011;60008;50.826;6.896;2022-11-15T10:55:27;1.25;;;0.20;;
72132;SDS011;60008;50.826;6.896;2022-11-15T10:59:00;2.83;;;0.50;;
72132;SDS011;60008;50.826;6.896;2022-11-15T11:01:23;1.73;;;0.30;;
72132;SDS011;60008;50.826;6.896;2022-11-15T11:04:16;3.55;;;0.73;;
72132;SDS011;60008;50.826;6.896;2022-11-15T11:07:01;3.83;;;0.50;;
72132;SDS011;60008;50.826;6.896;2022-11-15T11:09:47;2.22;;;0.60;;
72132;SDS011;60008;50.826;6.896;2022-11-15T11:12:42;3.53;;;0.70;;
72132;SDS011;60008;50.826;6.896;2022-11-15T11:15:27;3.28;;;0.90;;
72132;SDS011;60008;50.826;6.896;2022-11-15T11:21:50;0.87;;;0.30;;
72132;SDS011;60008;50.826;6.896;2022-11-15T11:34:15;1.27;;;0.40;;
72132;SDS011;60008;50.826;6.896;2022-11-15T11:37:17;2.27;;;0.40;;
72132;SDS011;60008;50.826;6.896;2022-11-15T11:40:20;2.65;;;0.40;;
72132;SDS011;60008;50.826;6.896;2022-11-15T11:52:44;4.60;;;0.50;;
72132;SDS011;60008;50.826;6.896;2022-11-15T11:55:31;4.13;;;0.40;;
72132;SDS011;60008;50.826;6.896;2022-11-15T12:01:34;1.20;;;0.43;;
72132;SDS011;60008;50.826;6.896;2022-11-15T12:04:26;3.90;;;0.50;;
72132;SDS011;60008;50.826;6.896;2022-11-15T12:07:31;2.33;;;0.40;;
72132;SDS011;60008;50.826;6.896;2022-11-15T12:10:25;3.88;;;1.00;;
72132;SDS011;60008;50.826;6.896;2022-11-15T12:13:19;3.47;;;0.65;;
72132;SDS011;60008;50.826;6.896;2022-11-15T12:16:14;3.13;;;0.73;;
72132;SDS011;60008;50.826;6.896;2022-11-15T12:19:03;7.07;;;1.05;;
72132;SDS011;60008;50.826;6.896;2022-11-15T12:21:58;4.37;;;0.97;;
72132;SDS011;60008;50.826;6.896;2022-11-15T12:28:44;2.92;;;0.85;;
72132;SDS011;60008;50.826;6.896;2022-11-15T12:31:51;7.20;;;1.00;;
72132;SDS011;60008;50.826;6.896;2022-11-15T12:34:42;3.90;;;0.55;;
72132;SDS011;60008;50.826;6.896;2022-11-15T12:40:21;3.75;;;1.17;;
72132;SDS011;60008;50.826;6.896;2022-11-15T12:46:01;1.45;;;0.40;;
72132;SDS011;60008;50.826;6.896;2022-11-15T12:48:50;4.88;;;0.65;;
72132;SDS011;60008;50.826;6.896;2022-11-15T13:00:16;2.20;;;0.60;;
72132;SDS011;60008;50.826;6.896;2022-11-15T13:03:16;3.75;;;0.73;;
72132;SDS011;60008;50.826;6.896;2022-11-15T13:06:04;4.80;;;0.80;;
72132;SDS011;60008;50.826;6.896;2022-11-15T13:08:50;2.53;;;0.52;;
72132;SDS011;60008;50.826;6.896;2022-11-15T13:11:46;1.20;;;0.50;;
72132;SDS011;60008;50.826;6.896;2022-11-15T13:17:23;2.30;;;0.90;;
72132;SDS011;60008;50.826;6.896;2022-11-15T13:23:00;3.90;;;1.15;;
72132;SDS011;60008;50.826;6.896;2022-11-15T13:25:57;3.72;;;1.20;;
72132;SDS011;60008;50.826;6.896;2022-11-15T13:28:53;5.22;;;1.20;;
72132;SDS011;60008;50.826;6.896;2022-11-15T13:31:43;3.05;;;1.20;;
72132;SDS011;60008;50.826;6.896;2022-11-15T13:34:29;4.17;;;1.23;;
72132;SDS011;60008;50.826;6.896;2022-11-15T13:37:35;3.75;;;1.10;;
72132;SDS011;60008;50.826;6.896;2022-11-15T13:40:22;3.30;;;1.17;;
72132;SDS011;60008;50.826;6.896;2022-11-15T13:43:19;3.00;;;1.10;;
72132;SDS011;60008;50.826;6.896;2022-11-15T13:46:15;4.35;;;1.40;;
72132;SDS011;60008;50.826;6.896;2022-11-15T13:49:03;4.13;;;1.20;;
72132;SDS011;60008;50.826;6.896;2022-11-15T13:51:57;5.65;;;1.67;;
72132;SDS011;60008;50.826;6.896;2022-11-15T13:54:47;4.65;;;1.10;;
72132;SDS011;60008;50.826;6.896;2022-11-15T13:57:42;6.28;;;1.33;;
72132;SDS011;60008;50.826;6.896;2022-11-15T14:00:32;4.20;;;1.50;;
72132;SDS011;60008;50.826;6.896;2022-11-15T14:03:29;3.57;;;1.30;;
72132;SDS011;60008;50.826;6.896;2022-11-15T14:06:17;4.70;;;1.30;;
72132;SDS011;60008;50.826;6.896;2022-11-15T14:11:56;3.47;;;1.20;;
72132;SDS011;60008;50.826;6.896;2022-11-15T14:14:44;4.68;;;1.60;;
72132;SDS011;60008;50.826;6.896;2022-11-15T14:17:35;3.03;;;1.30;;
72132;SDS011;60008;50.826;6.896;2022-11-15T14:23:23;3.15;;;1.40;;
72132;SDS011;60008;50.826;6.896;2022-11-15T14:26:26;3.65;;;1.60;;
72132;SDS011;60008;50.826;6.896;2022-11-15T14:29:25;4.65;;;1.30;;
72132;SDS011;60008;50.826;6.896;2022-11-15T14:32:19;3.13;;;1.60;;
72132;SDS011;60008;50.826;6.896;2022-11-15T14:35:11;7.07;;;1.48;;
72132;SDS011;60008;50.826;6.896;2022-11-15T14:37:59;3.15;;;1.50;;
72132;SDS011;60008;50.826;6.896;2022-11-15T14:40:44;5.68;;;1.35;;
72132;SDS011;60008;50.826;6.896;2022-11-15T14:43:29;3.40;;;1.60;;
72132;SDS011;60008;50.826;6.896;2022-11-15T14:46:15;4.07;;;1.57;;
72132;SDS011;60008;50.826;6.896;2022-11-15T14:49:00;3.70;;;1.75;;
72132;SDS011;60008;50.826;6.896;2022-11-15T14:51:45;5.68;;;1.60;;
72132;SDS011;60008;50.826;6.896;2022-11-15T14:54:30;3.05;;;1.50;;
72132;SDS011;60008;50.826;6.896;2022-11-15T14:57:15;6.97;;;1.88;;
72132;SDS011;60008;50.826;6.896;2022-11-15T15:00:00;6.33;;;1.60;;
72132;SDS011;60008;50.826;6.896;2022-11-15T15:02:45;2.80;;;1.35;;
72132;SDS011;60008;50.826;6.896;2022-11-15T15:05:32;2.83;;;1.30;;
72132;SDS011;60008;50.826;6.896;2022-11-15T15:08:20;2.50;;;1.33;;
72132;SDS011;60008;50.826;6.896;2022-11-15T15:11:17;3.95;;;1.20;;
72132;SDS011;60008;50.826;6.896;2022-11-15T15:14:14;2.70;;;1.13;;
72132;SDS011;60008;50.826;6.896;2022-11-15T15:16:59;3.95;;;1.20;;
72132;SDS011;60008;50.826;6.896;2022-11-15T15:19:44;4.07;;;1.02;;
72132;SDS011;60008;50.826;6.896;2022-11-15T15:22:29;4.25;;;1.17;;
72132;SDS011;60008;50.826;6.896;2022-11-15T15:25:18;3.40;;;1.00;;
72132;SDS011;60008;50.826;6.896;2022-11-15T15:28:12;2.53;;;0.87;;
72132;SDS011;60008;50.826;6.896;2022-11-15T15:30:58;4.93;;;1.15;;
72132;SDS011;60008;50.826;6.896;2022-11-15T15:33:43;4.93;;;1.25;;
72132;SDS011;60008;50.826;6.896;2022-11-15T15:36:29;3.70;;;1.30;;
72132;SDS011;60008;50.826;6.896;2022-11-15T15:39:14;4.78;;;1.42;;
72132;SDS011;60008;50.826;6.896;2022-11-15T15:41:59;2.90;;;1.03;;
72132;SDS011;60008;50.826;6.896;2022-11-15T15:44:44;5.35;;;1.20;;
72132;SDS011;60008;50.826;6.896;2022-11-15T15:47:29;2.42;;;0.90;;
72132;SDS011;60008;50.826;6.896;2022-11-15T15:50:17;2.72;;;1.20;;
72132;SDS011;60008;50.826;6.896;2022-11-15T15:53:06;3.00;;;1.02;;
72132;SDS011;60008;50.826;6.896;2022-11-15T15:55:52;2.77;;;1.20;;
72132;SDS011;60008;50.826;6.896;2022-11-15T15:58:38;4.53;;;1.17;;
72132;SDS011;60008;50.826;6.896;2022-11-15T16:01:23;6.25;;;1.23;;
72132;SDS011;60008;50.826;6.896;2022-11-15T16:04:09;3.13;;;1.27;;
72132;SDS011;60008;50.826;6.896;2022-11-15T16:06:58;2.72;;;1.20;;
72132;SDS011;60008;50.826;6.896;2022-11-15T16:09:43;3.53;;;1.30;;
72132;SDS011;60008;50.826;6.896;2022-11-15T16:12:47;2.08;;;0.80;;
72132;SDS011;60008;50.826;6.896;2022-11-15T16:15:32;2.28;;;1.10;;
72132;SDS011;60008;50.826;6.896;2022-11-15T16:18:17;5.20;;;1.13;;
72132;SDS011;60008;50.826;6.896;2022-11-15T16:21:03;5.20;;;1.65;;
72132;SDS011;60008;50.826;6.896;2022-11-15T16:23:48;15.97;;;6.80;;
72132;SDS011;60008;50.826;6.896;2022-11-15T16:26:33;7.75;;;2.85;;
72132;SDS011;60008;50.826;6.896;2022-11-15T16:29:20;13.75;;;5.30;;
72132;SDS011;60008;50.826;6.896;2022-11-15T16:32:05;9.63;;;3.78;;
72132;SDS011;60008;50.826;6.896;2022-11-15T16:34:50;8.98;;;2.60;;
72132;SDS011;60008;50.826;6.896;2022-11-15T16:37:35;11.27;;;4.63;;
72132;SDS011;60008;50.826;6.896;2022-11-15T16:40:27;9.00;;;3.60;;
72132;SDS011;60008;50.826;6.896;2022-11-15T16:43:17;6.70;;;3.13;;
72132;SDS011;60008;50.826;6.896;2022-11-15T16:46:06;8.07;;;3.75;;
72132;SDS011;60008;50.826;6.896;2022-11-15T16:48:57;5.82;;;2.40;;
72132;SDS011;60008;50.826;6.896;2022-11-15T16:51:42;10.00;;;4.40;;
72132;SDS011;60008;50.826;6.896;2022-11-15T16:54:30;11.77;;;4.85;;
72132;SDS011;60008;50.826;6.896;2022-11-15T16:57:15;10.82;;;4.25;;
72132;SDS011;60008;50.826;6.896;2022-11-15T17:00:00;13.70;;;4.72;;
72132;SDS011;60008;50.826;6.896;2022-11-15T17:02:45;14.35;;;4.25;;
72132;SDS011;60008;50.826;6.896;2022-11-15T17:05:32;10.90;;;4.60;;
72132;SDS011;60008;50.826;6.896;2022-11-15T17:08:17;11.27;;;3.72;;
72132;SDS011;60008;50.826;6.896;2022-11-15T17:11:05;7.25;;;3.10;;
72132;SDS011;60008;50.826;6.896;2022-11-15T17:13:54;8.13;;;2.83;;
72132;SDS011;60008;50.826;6.896;2022-11-15T17:16:41;7.40;;;3.80;;
72132;SDS011;60008;50.826;6.896;2022-11-15T17:19:27;7.37;;;2.80;;
72132;SDS011;60008;50.826;6.896;2022-11-15T17:22:13;8.88;;;3.15;;
72132;SDS011;60008;50.826;6.896;2022-11-15T17:24:58;5.32;;;1.90;;
72132;SDS011;60008;50.826;6.896;2022-11-15T17:27:43;8.10;;;3.22;;
72132;SDS011;60008;50.826;6.896;2022-11-15T17:30:28;7.13;;;2.90;;
72132;SDS011;60008;50.826;6.896;2022-11-15T17:33:14;10.90;;;3.40;;
72132;SDS011;60008;50.826;6.896;2022-11-15T17:35:59;7.00;;;2.50;;
72132;SDS011;60008;50.826;6.896;2022-11-15T17:38:46;8.45;;;2.75;;
72132;SDS011;60008;50.826;6.896;2022-11-15T17:41:42;7.25;;;2.90;;
72132;SDS011;60008;50.826;6.896;2022-11-15T17:44:28;11.73;;;4.30;;
72132;SDS011;60008;50.826;6.896;2022-11-15T17:47:13;11.60;;;4.33;;
72132;SDS011;60008;50.826;6.896;2022-11-15T17:49:58;10.25;;;4.40;;
72132;SDS011;60008;50.826;6.896;2022-11-15T17:52:43;10.95;;;3.55;;
72132;SDS011;60008;50.826;6.896;2022-11-15T17:55:28;8.30;;;3.17;;
72132;SDS011;60008;50.826;6.896;2022-11-15T17:58:13;8.48;;;3.47;;
72132;SDS011;60008;50.826;6.896;2022-11-15T18:01:15;5.43;;;2.43;;
72132;SDS011;60008;50.826;6.896;2022-11-15T18:04:06;6.60;;;3.13;;
72132;SDS011;60008;50.826;6.896;2022-11-15T18:06:52;8.68;;;2.42;;
72132;SDS011;60008;50.826;6.896;2022-11-15T18:09:39;8.85;;;3.88;;
72132;SDS011;60008;50.826;6.896;2022-11-15T18:12:27;11.68;;;3.90;;
72132;SDS011;60008;50.826;6.896;2022-11-15T18:15:12;11.00;;;4.77;;
72132;SDS011;60008;50.826;6.896;2022-11-15T18:17:57;12.40;;;5.00;;